TimeAKST,TemperatureF,Dew PointF,Humidity,Sea Level PressureIn,VisibilityMPH,Wind Direction,Wind SpeedMPH,Gust SpeedMPH,PrecipitationIn,Events,Conditions,WindDirDegrees,DateUTC
12:03 AM,14.0,5.0,67,30.21,10.0,NNW,3.5,-,N/A,,Partly Cloudy,340,2014-03-01 09:03:00
12:55 AM,12.4,5.2,73,30.21,10.0,NNW,4.6,-,N/A,,Clear,330,2014-03-01 09:55:00
1:03 AM,14.0,5.0,67,30.21,10.0,WNW,3.5,-,N/A,,Partly Cloudy,300,2014-03-01 10:03:00
1:55 AM,12.2,4.8,72,30.20,10.0,Variable,1.2,-,N/A,,Clear,0,2014-03-01 10:55:00
2:55 AM,12.0,3.9,70,30.22,10.0,Variable,1.2,-,N/A,,Clear,0,2014-03-01 11:55:00
3:55 AM,11.8,5.2,75,30.20,10.0,NNW,1.2,-,N/A,,Clear,340,2014-03-01 12:55:00
4:03 AM,10.4,3.2,73,30.20,10.0,Variable,1.2,-,N/A,,Scattered Clouds,0,2014-03-01 13:03:00
4:55 AM,11.7,5.0,75,30.19,10.0,Variable,1.2,-,N/A,,Partly Cloudy,0,2014-03-01 13:55:00
5:55 AM,9.1,4.6,82,30.19,10.0,SW,1.2,-,N/A,,Mostly Cloudy,230,2014-03-01 14:55:00
6:55 AM,9.9,3.7,76,30.20,10.0,NW,1.2,-,N/A,,Scattered Clouds,310,2014-03-01 15:55:00
7:55 AM,8.2,3.7,82,30.21,10.0,NW,2.3,-,N/A,,Partly Cloudy,320,2014-03-01 16:55:00
8:55 AM,7.0,2.8,83,30.22,10.0,NNW,2.3,-,N/A,,Mostly Cloudy,340,2014-03-01 17:55:00
9:55 AM,9.5,3.9,78,30.23,10.0,Variable,1.2,-,N/A,,Mostly Cloudy,0,2014-03-01 18:55:00
10:55 AM,10.9,4.5,75,30.23,10.0,SE,1.2,-,N/A,,Clear,140,2014-03-01 19:55:00
11:55 AM,11.5,4.3,73,30.22,10.0,South,2.3,-,N/A,,Partly Cloudy,170,2014-03-01 20:55:00
12:55 PM,17.6,4.6,57,30.21,10.0,SSE,2.3,-,N/A,,Clear,150,2014-03-01 21:55:00
1:55 PM,20.1,4.6,51,30.20,10.0,SE,6.9,-,N/A,,Clear,130,2014-03-01 22:55:00
2:55 PM,21.0,4.6,49,30.19,10.0,SE,4.6,-,N/A,,Clear,140,2014-03-01 23:55:00
3:55 PM,21.4,5.0,49,30.18,10.0,SE,3.5,-,N/A,,Clear,130,2014-03-02 00:55:00
4:55 PM,21.2,5.0,50,30.16,10.0,SSE,3.5,-,N/A,,Clear,150,2014-03-02 01:55:00
5:55 PM,18.5,4.6,55,30.17,10.0,SSE,3.5,-,N/A,,Clear,160,2014-03-02 02:55:00
6:55 PM,15.6,4.3,61,30.17,10.0,NW,1.2,-,N/A,,Mostly Cloudy,310,2014-03-02 03:55:00
7:55 PM,14.2,4.5,65,30.19,10.0,Variable,1.2,-,N/A,,Mostly Cloudy,0,2014-03-02 04:55:00
8:55 PM,12.7,4.3,69,30.18,10.0,NNW,2.3,-,N/A,,Mostly Cloudy,340,2014-03-02 05:55:00
9:55 PM,14.2,6.3,71,30.18,10.0,NW,3.5,-,N/A,,Mostly Cloudy,320,2014-03-02 06:55:00
10:55 PM,11.3,6.1,80,30.17,10.0,NW,4.6,-,N/A,,Clear,320,2014-03-02 07:55:00
11:55 PM,9.5,5.9,85,30.17,10.0,ENE,1.2,-,N/A,,Scattered Clouds,70,2014-03-02 08:55:00